Terminal Aerodrome Forecast
Issued by NWS Boise, ID

Home | Current Version | Previous Version | Text Only | Print | Product List | Glossary On
Versions: 1 2 3 4 5 6 7 8 9 10 11 12
000
FTUS45 KBOI 311134
TAFBNO
TAF
KBNO 311134Z 3112/0112 23005KT P6SM FEW120 BKN200
     FM312100 20010KT P6SM -SHRA SCT050 BKN100
     FM010300 30005KT P6SM -RA SCT020 OVC040=

USA.gov is the U.S. government's official web portal to all federal, state and local government web resources and services.